Bellevue, NE

11:00 PM CDT on September 19, 2014 (GMT -0500)
Sunrise Subdivision, Bellevue, NE | Change Station
CLOSE
Current Station
Personal Weather Station
Location: Bellevue, NE
Elevation: 1171 ft
Nearby Weather Stations

Elev 1171 ft 41.17 °N, 95.95 °W | Updated 10 seconds ago

Clear
Clear
72.7 °F
Feels Like 71 °F
N
8.0
Wind Variable Wind from South
Gusts 11.0 mph

Today
High -- | Low -- °F
--% Chance of Precip.
Yesterday
High -- | Low -- °F
Precip. -- in
7:08 AM 7:26 PM
Waning Crescent, 15% visible
Pressure 29.80 in
Visibility 10.0 miles
Clouds Clear
Heat Index 71 °F
Dew Point 69 °F
Humidity 87%
Rainfall 0.00 in
Snow Depth Not available.
UV 0 out of 12
Pollen 6.70 out of 12
Ozone Good
PM2.5 Moderate
Flu Activity Not available.
METAR KOFF 200358Z AUTO 16013KT 10SM CLR 23/23 A2981 RMK AO2 SLP091 T02310229

More Conditions Fewer Conditions

Pressure 29.80 in
Visibility 10.0 miles
Clouds Clear
Heat Index 71 °F
Dew Point 69 °F
Humidity 87%
Rainfall 0.00 in
Snow Depth Not available.
UV 0 out of 12
Pollen 6.70 out of 12
Ozone Good
PM2.5 Moderate
Flu Activity Not available.
METAR KOFF 200358Z AUTO 16013KT 10SM CLR 23/23 A2981 RMK AO2 SLP091 T02310229

More Conditions Fewer Conditions

10-Day Weather Forecast

Almanac

Astronomy

Sep. 19, 2014 Rise Set
Actual Time 7:08 AM CDT 7:26 PM CDT
Civil Twilight 6:40 AM CDT 7:53 PM CDT
Nautical Twilight 6:08 AM CDT 8:25 PM CDT
Astronomical Twilight 5:35 AM CDT 8:58 PM CDT
Moon 2:52 AM CDT (9/19) 4:57 PM CDT (9/19)
Length of Visible Light 13h 12m
Length of Day
12h 17m
Tomorrow will be 2m 43s shorter.
Waning Crescent, 15% of the Moon is Illuminated
Sep 20
Waning Crescent
Sep 24
New
Oct 1
First Quarter
Oct 8
Full
Oct 15
Last Quarter

Today's Extremes

State Highs State Lows

Community

WunderPhotos

Upload Photos

1,754,777 photos uploaded!

WunderBlogs® & News

Nearby

Air Quality

  Air Quality AQ Index Pollutant
Yesterday Good
PM2.5
Yesterday Good
OZONE
Current Moderate
PM2.5
Current Good
OZONE
Friday Good
PM2.5
Friday Good
OZONE
Friday Good
CO
Saturday Good
PM2.5
Saturday Good
OZONE
Saturday Good
CO
Sunday Good
PM2.5
Sunday Good
OZONE
Sunday Good
CO

Snow Depth

Station Depth Elevation
No new snow has been reported.

Earthquake Activity

City Distance Mag. Time & Date
No recent earthquake activity has been reported nearby.
Minimum magnitude displayed is 2.5.

Coastal Water Temperatures

Place Temperature
No Stations Reporting

Nearby Weather Stations